sensor_id;sensor_type;location;lat;lon;timestamp;pressure;altitude;pressure_sealevel;temperature;humidity
81299;BME280;70766;53.170;18.160;2024-01-11T00:01:11;102295.84;;;-3.77;100.00
81299;BME280;70766;53.170;18.160;2024-01-11T00:03:40;102292.02;;;-3.75;100.00
81299;BME280;70766;53.170;18.160;2024-01-11T00:06:08;102288.38;;;-3.73;100.00
81299;BME280;70766;53.170;18.160;2024-01-11T00:08:36;102279.81;;;-3.70;100.00
81299;BME280;70766;53.170;18.160;2024-01-11T00:11:04;102261.08;;;-3.67;100.00
81299;BME280;70766;53.170;18.160;2024-01-11T00:13:33;102264.55;;;-3.67;100.00
81299;BME280;70766;53.170;18.160;2024-01-11T00:16:01;102269.45;;;-3.64;100.00
81299;BME280;70766;53.170;18.160;2024-01-11T00:18:29;102258.86;;;-3.57;100.00
81299;BME280;70766;53.170;18.160;2024-01-11T00:20:57;102253.85;;;-3.58;100.00
81299;BME280;70766;53.170;18.160;2024-01-11T00:23:25;102261.88;;;-3.55;100.00
81299;BME280;70766;53.170;18.160;2024-01-11T00:25:53;102263.17;;;-3.53;100.00
81299;BME280;70766;53.170;18.160;2024-01-11T00:28:22;102255.88;;;-3.52;100.00
81299;BME280;70766;53.170;18.160;2024-01-11T00:30:50;102249.45;;;-3.47;100.00
81299;BME280;70766;53.170;18.160;2024-01-11T00:33:18;102231.85;;;-3.45;100.00
81299;BME280;70766;53.170;18.160;2024-01-11T00:35:46;102222.27;;;-3.43;100.00
81299;BME280;70766;53.170;18.160;2024-01-11T00:38:14;102218.61;;;-3.41;100.00
81299;BME280;70766;53.170;18.160;2024-01-11T00:40:42;102209.21;;;-3.39;100.00
81299;BME280;70766;53.170;18.160;2024-01-11T00:43:10;102207.31;;;-3.37;100.00
81299;BME280;70766;53.170;18.160;2024-01-11T00:45:38;102212.85;;;-3.33;100.00
81299;BME280;70766;53.170;18.160;2024-01-11T00:48:07;102214.63;;;-3.31;100.00
81299;BME280;70766;53.170;18.160;2024-01-11T00:50:35;102216.02;;;-3.28;100.00
81299;BME280;70766;53.170;18.160;2024-01-11T00:53:03;102211.05;;;-3.25;100.00
81299;BME280;70766;53.170;18.160;2024-01-11T00:55:32;102210.02;;;-3.23;100.00
81299;BME280;70766;53.170;18.160;2024-01-11T00:58:00;102200.90;;;-3.19;100.00
81299;BME280;70766;53.170;18.160;2024-01-11T01:00:28;102204.60;;;-3.17;100.00
81299;BME280;70766;53.170;18.160;2024-01-11T01:02:56;102208.58;;;-3.17;100.00
81299;BME280;70766;53.170;18.160;2024-01-11T01:05:24;102224.70;;;-3.14;100.00
81299;BME280;70766;53.170;18.160;2024-01-11T01:07:52;102231.15;;;-3.11;100.00
81299;BME280;70766;53.170;18.160;2024-01-11T01:10:21;102224.44;;;-3.08;100.00
81299;BME280;70766;53.170;18.160;2024-01-11T01:12:49;102224.27;;;-3.05;100.00
81299;BME280;70766;53.170;18.160;2024-01-11T01:15:17;102224.04;;;-3.02;100.00
81299;BME280;70766;53.170;18.160;2024-01-11T01:17:45;102216.36;;;-3.00;100.00
81299;BME280;70766;53.170;18.160;2024-01-11T01:20:13;102223.39;;;-2.95;100.00
81299;BME280;70766;53.170;18.160;2024-01-11T01:22:42;102226.36;;;-2.91;100.00
81299;BME280;70766;53.170;18.160;2024-01-11T01:25:10;102226.09;;;-2.88;100.00
81299;BME280;70766;53.170;18.160;2024-01-11T01:27:38;102219.56;;;-2.84;100.00
81299;BME280;70766;53.170;18.160;2024-01-11T01:30:07;102219.45;;;-2.83;100.00
81299;BME280;70766;53.170;18.160;2024-01-11T01:32:37;102214.06;;;-2.81;100.00
81299;BME280;70766;53.170;18.160;2024-01-11T01:35:05;102215.45;;;-2.76;100.00
81299;BME280;70766;53.170;18.160;2024-01-11T01:37:33;102218.92;;;-2.75;100.00
81299;BME280;70766;53.170;18.160;2024-01-11T01:40:02;102228.27;;;-2.73;100.00
81299;BME280;70766;53.170;18.160;2024-01-11T01:42:32;102225.39;;;-2.70;100.00
81299;BME280;70766;53.170;18.160;2024-01-11T01:45:00;102228.08;;;-2.68;100.00
81299;BME280;70766;53.170;18.160;2024-01-11T01:47:28;102226.77;;;-2.64;100.00
81299;BME280;70766;53.170;18.160;2024-01-11T01:49:57;102241.83;;;-2.64;100.00
81299;BME280;70766;53.170;18.160;2024-01-11T01:52:27;102242.50;;;-2.61;100.00
81299;BME280;70766;53.170;18.160;2024-01-11T01:54:56;102245.13;;;-2.59;100.00
81299;BME280;70766;53.170;18.160;2024-01-11T01:57:25;102248.80;;;-2.51;100.00
81299;BME280;70766;53.170;18.160;2024-01-11T01:59:54;102238.85;;;-2.52;100.00
81299;BME280;70766;53.170;18.160;2024-01-11T02:02:23;102238.66;;;-2.49;100.00
81299;BME280;70766;53.170;18.160;2024-01-11T02:04:52;102239.41;;;-2.47;100.00
81299;BME280;70766;53.170;18.160;2024-01-11T02:07:20;102240.48;;;-2.45;100.00
81299;BME280;70766;53.170;18.160;2024-01-11T02:09:49;102239.24;;;-2.40;100.00
81299;BME280;70766;53.170;18.160;2024-01-11T02:12:18;102237.17;;;-2.38;100.00
81299;BME280;70766;53.170;18.160;2024-01-11T02:14:46;102236.88;;;-2.36;100.00
81299;BME280;70766;53.170;18.160;2024-01-11T02:17:14;102234.13;;;-2.32;100.00
81299;BME280;70766;53.170;18.160;2024-01-11T02:19:42;102232.39;;;-2.30;100.00
81299;BME280;70766;53.170;18.160;2024-01-11T02:22:22;102234.01;;;-2.28;100.00
81299;BME280;70766;53.170;18.160;2024-01-11T02:24:52;102231.10;;;-2.26;100.00
81299;BME280;70766;53.170;18.160;2024-01-11T02:27:21;102224.04;;;-2.23;100.00
81299;BME280;70766;53.170;18.160;2024-01-11T02:29:49;102212.39;;;-2.22;100.00
81299;BME280;70766;53.170;18.160;2024-01-11T02:32:17;102201.86;;;-2.20;100.00
81299;BME280;70766;53.170;18.160;2024-01-11T02:34:46;102199.76;;;-2.17;100.00
81299;BME280;70766;53.170;18.160;2024-01-11T02:37:14;102198.55;;;-2.15;100.00
81299;BME280;70766;53.170;18.160;2024-01-11T02:39:42;102194.36;;;-2.13;100.00
81299;BME280;70766;53.170;18.160;2024-01-11T02:42:11;102193.59;;;-2.09;100.00
81299;BME280;70766;53.170;18.160;2024-01-11T02:44:42;102197.39;;;-2.06;100.00
81299;BME280;70766;53.170;18.160;2024-01-11T02:47:10;102194.73;;;-2.03;100.00
81299;BME280;70766;53.170;18.160;2024-01-11T02:49:38;102188.63;;;-2.01;100.00
81299;BME280;70766;53.170;18.160;2024-01-11T02:52:06;102185.23;;;-1.98;100.00
81299;BME280;70766;53.170;18.160;2024-01-11T02:54:34;102173.34;;;-1.96;100.00
81299;BME280;70766;53.170;18.160;2024-01-11T02:57:02;102172.84;;;-1.94;100.00
81299;BME280;70766;53.170;18.160;2024-01-11T02:59:30;102173.59;;;-1.92;100.00
81299;BME280;70766;53.170;18.160;2024-01-11T03:01:59;102154.39;;;-1.89;100.00
81299;BME280;70766;53.170;18.160;2024-01-11T03:04:27;102150.92;;;-1.88;100.00
81299;BME280;70766;53.170;18.160;2024-01-11T03:06:55;102146.32;;;-1.85;100.00
81299;BME280;70766;53.170;18.160;2024-01-11T03:09:23;102135.44;;;-1.82;100.00
81299;BME280;70766;53.170;18.160;2024-01-11T03:11:51;102133.73;;;-1.80;100.00
81299;BME280;70766;53.170;18.160;2024-01-11T03:14:19;102128.08;;;-1.80;100.00
81299;BME280;70766;53.170;18.160;2024-01-11T03:16:47;102114.04;;;-1.77;100.00
81299;BME280;70766;53.170;18.160;2024-01-11T03:19:15;102108.96;;;-1.75;100.00
81299;BME280;70766;53.170;18.160;2024-01-11T03:21:44;102115.73;;;-1.72;100.00
81299;BME280;70766;53.170;18.160;2024-01-11T03:24:13;102112.67;;;-1.71;100.00
81299;BME280;70766;53.170;18.160;2024-01-11T03:26:41;102108.02;;;-1.70;100.00
81299;BME280;70766;53.170;18.160;2024-01-11T03:29:12;102121.13;;;-1.67;100.00
81299;BME280;70766;53.170;18.160;2024-01-11T03:31:40;102113.98;;;-1.65;100.00
81299;BME280;70766;53.170;18.160;2024-01-11T03:34:10;102118.90;;;-1.63;100.00
81299;BME280;70766;53.170;18.160;2024-01-11T03:36:38;102126.84;;;-1.58;100.00
81299;BME280;70766;53.170;18.160;2024-01-11T03:39:06;102123.95;;;-1.55;100.00
81299;BME280;70766;53.170;18.160;2024-01-11T03:41:34;102114.41;;;-1.54;100.00
81299;BME280;70766;53.170;18.160;2024-01-11T03:44:03;102106.14;;;-1.52;100.00
81299;BME280;70766;53.170;18.160;2024-01-11T03:46:31;102108.36;;;-1.46;100.00
81299;BME280;70766;53.170;18.160;2024-01-11T03:48:59;102096.58;;;-1.46;100.00
81299;BME280;70766;53.170;18.160;2024-01-11T03:51:28;102095.27;;;-1.45;100.00
81299;BME280;70766;53.170;18.160;2024-01-11T03:53:56;102093.55;;;-1.43;100.00
81299;BME280;70766;53.170;18.160;2024-01-11T03:56:24;102082.89;;;-1.39;100.00
81299;BME280;70766;53.170;18.160;2024-01-11T03:58:52;102074.96;;;-1.36;100.00
81299;BME280;70766;53.170;18.160;2024-01-11T04:01:20;102066.15;;;-1.33;100.00
81299;BME280;70766;53.170;18.160;2024-01-11T04:03:52;102056.06;;;-1.32;100.00
81299;BME280;70766;53.170;18.160;2024-01-11T04:06:24;102046.16;;;-1.29;100.00
81299;BME280;70766;53.170;18.160;2024-01-11T04:08:52;102025.73;;;-1.29;100.00
81299;BME280;70766;53.170;18.160;2024-01-11T04:11:21;102019.47;;;-1.27;100.00
81299;BME280;70766;53.170;18.160;2024-01-11T04:13:49;102021.29;;;-1.25;100.00
81299;BME280;70766;53.170;18.160;2024-01-11T04:16:18;102015.95;;;-1.25;100.00
81299;BME280;70766;53.170;18.160;2024-01-11T04:18:46;102013.40;;;-1.21;100.00
81299;BME280;70766;53.170;18.160;2024-01-11T04:21:24;102029.39;;;-1.21;100.00
81299;BME280;70766;53.170;18.160;2024-01-11T04:23:56;102035.71;;;-1.21;100.00
81299;BME280;70766;53.170;18.160;2024-01-11T04:26:25;102040.17;;;-1.16;100.00
81299;BME280;70766;53.170;18.160;2024-01-11T04:28:53;102039.98;;;-1.11;100.00
81299;BME280;70766;53.170;18.160;2024-01-11T04:31:26;102033.02;;;-1.09;100.00
81299;BME280;70766;53.170;18.160;2024-01-11T04:33:55;102023.04;;;-1.08;100.00
81299;BME280;70766;53.170;18.160;2024-01-11T04:36:23;102012.73;;;-1.04;100.00
81299;BME280;70766;53.170;18.160;2024-01-11T04:38:52;102011.27;;;-1.03;100.00
81299;BME280;70766;53.170;18.160;2024-01-11T04:41:20;102015.75;;;-1.00;100.00
81299;BME280;70766;53.170;18.160;2024-01-11T04:43:48;102017.23;;;-0.99;100.00
81299;BME280;70766;53.170;18.160;2024-01-11T04:46:18;102017.05;;;-0.96;100.00
81299;BME280;70766;53.170;18.160;2024-01-11T04:48:50;102018.60;;;-0.94;100.00
81299;BME280;70766;53.170;18.160;2024-01-11T04:51:20;102020.63;;;-0.91;100.00
81299;BME280;70766;53.170;18.160;2024-01-11T04:53:48;102022.15;;;-0.87;100.00
81299;BME280;70766;53.170;18.160;2024-01-11T04:56:17;102016.16;;;-0.86;100.00
81299;BME280;70766;53.170;18.160;2024-01-11T04:58:46;102011.34;;;-0.82;100.00
81299;BME280;70766;53.170;18.160;2024-01-11T05:01:20;102014.03;;;-0.79;100.00
81299;BME280;70766;53.170;18.160;2024-01-11T05:03:49;102012.19;;;-0.77;100.00
81299;BME280;70766;53.170;18.160;2024-01-11T05:06:21;102016.44;;;-0.76;100.00
81299;BME280;70766;53.170;18.160;2024-01-11T05:08:51;102013.44;;;-0.73;100.00
81299;BME280;70766;53.170;18.160;2024-01-11T05:11:23;102016.30;;;-0.70;100.00
81299;BME280;70766;53.170;18.160;2024-01-11T05:13:54;102014.25;;;-0.68;100.00
81299;BME280;70766;53.170;18.160;2024-01-11T05:16:25;102012.25;;;-0.65;100.00
81299;BME280;70766;53.170;18.160;2024-01-11T05:18:55;102006.92;;;-0.65;100.00
81299;BME280;70766;53.170;18.160;2024-01-11T05:21:24;102000.69;;;-0.61;100.00
81299;BME280;70766;53.170;18.160;2024-01-11T05:23:54;102005.86;;;-0.60;100.00
81299;BME280;70766;53.170;18.160;2024-01-11T05:26:23;102003.89;;;-0.60;100.00
81299;BME280;70766;53.170;18.160;2024-01-11T05:28:51;102006.98;;;-0.57;100.00
81299;BME280;70766;53.170;18.160;2024-01-11T05:31:23;102014.15;;;-0.56;100.00
81299;BME280;70766;53.170;18.160;2024-01-11T05:33:51;102011.90;;;-0.57;100.00
81299;BME280;70766;53.170;18.160;2024-01-11T05:36:19;102012.09;;;-0.55;100.00
81299;BME280;70766;53.170;18.160;2024-01-11T05:38:47;102015.33;;;-0.53;100.00
81299;BME280;70766;53.170;18.160;2024-01-11T05:41:19;102007.23;;;-0.51;100.00
81299;BME280;70766;53.170;18.160;2024-01-11T05:43:48;101996.85;;;-0.49;100.00
81299;BME280;70766;53.170;18.160;2024-01-11T05:46:17;102010.27;;;-0.48;100.00
81299;BME280;70766;53.170;18.160;2024-01-11T05:48:46;102006.77;;;-0.46;100.00
81299;BME280;70766;53.170;18.160;2024-01-11T05:51:14;102005.71;;;-0.46;100.00
81299;BME280;70766;53.170;18.160;2024-01-11T05:53:45;101996.70;;;-0.45;100.00
81299;BME280;70766;53.170;18.160;2024-01-11T05:56:18;101986.91;;;-0.43;100.00
81299;BME280;70766;53.170;18.160;2024-01-11T05:58:47;101978.56;;;-0.42;100.00
81299;BME280;70766;53.170;18.160;2024-01-11T06:01:16;101975.78;;;-0.41;100.00
81299;BME280;70766;53.170;18.160;2024-01-11T06:03:47;101976.33;;;-0.39;100.00
81299;BME280;70766;53.170;18.160;2024-01-11T06:06:16;101981.60;;;-0.39;100.00
81299;BME280;70766;53.170;18.160;2024-01-11T06:08:44;101978.41;;;-0.39;100.00
81299;BME280;70766;53.170;18.160;2024-01-11T06:11:13;101971.18;;;-0.38;100.00
81299;BME280;70766;53.170;18.160;2024-01-11T06:13:41;101974.05;;;-0.39;100.00
81299;BME280;70766;53.170;18.160;2024-01-11T06:16:10;101968.76;;;-0.37;100.00
81299;BME280;70766;53.170;18.160;2024-01-11T06:18:43;101969.20;;;-0.36;100.00
81299;BME280;70766;53.170;18.160;2024-01-11T06:21:11;101962.89;;;-0.36;100.00
81299;BME280;70766;53.170;18.160;2024-01-11T06:23:40;101970.70;;;-0.32;100.00
81299;BME280;70766;53.170;18.160;2024-01-11T06:26:08;101983.23;;;-0.33;100.00
81299;BME280;70766;53.170;18.160;2024-01-11T06:28:37;101985.18;;;-0.33;100.00
81299;BME280;70766;53.170;18.160;2024-01-11T06:31:05;101985.42;;;-0.32;100.00
81299;BME280;70766;53.170;18.160;2024-01-11T06:33:34;101982.20;;;-0.31;100.00
81299;BME280;70766;53.170;18.160;2024-01-11T06:36:06;101986.98;;;-0.30;100.00
81299;BME280;70766;53.170;18.160;2024-01-11T06:38:35;101983.38;;;-0.28;100.00
81299;BME280;70766;53.170;18.160;2024-01-11T06:41:04;101974.33;;;-0.27;100.00
81299;BME280;70766;53.170;18.160;2024-01-11T06:43:32;101964.91;;;-0.26;100.00
81299;BME280;70766;53.170;18.160;2024-01-11T06:46:04;101965.89;;;-0.26;100.00
81299;BME280;70766;53.170;18.160;2024-01-11T06:48:37;101967.14;;;-0.24;100.00
81299;BME280;70766;53.170;18.160;2024-01-11T06:51:06;101957.25;;;-0.21;100.00
81299;BME280;70766;53.170;18.160;2024-01-11T06:53:36;101962.17;;;-0.21;100.00
81299;BME280;70766;53.170;18.160;2024-01-11T06:56:16;101968.64;;;-0.20;100.00
81299;BME280;70766;53.170;18.160;2024-01-11T06:58:48;101961.42;;;-0.20;100.00
81299;BME280;70766;53.170;18.160;2024-01-11T07:01:16;101964.89;;;-0.20;100.00
81299;BME280;70766;53.170;18.160;2024-01-11T07:03:45;101970.87;;;-0.18;100.00
81299;BME280;70766;53.170;18.160;2024-01-11T07:06:14;101975.20;;;-0.17;100.00
81299;BME280;70766;53.170;18.160;2024-01-11T07:08:42;101976.83;;;-0.15;100.00
81299;BME280;70766;53.170;18.160;2024-01-11T07:11:11;101964.41;;;-0.14;100.00
81299;BME280;70766;53.170;18.160;2024-01-11T07:13:42;101962.77;;;-0.09;100.00
81299;BME280;70766;53.170;18.160;2024-01-11T07:16:11;101962.05;;;-0.09;100.00
81299;BME280;70766;53.170;18.160;2024-01-11T07:18:43;101955.56;;;-0.07;100.00
81299;BME280;70766;53.170;18.160;2024-01-11T07:21:20;101948.31;;;-0.07;100.00
81299;BME280;70766;53.170;18.160;2024-01-11T07:23:49;101949.52;;;-0.07;100.00
81299;BME280;70766;53.170;18.160;2024-01-11T07:26:17;101940.45;;;-0.05;100.00
81299;BME280;70766;53.170;18.160;2024-01-11T07:28:45;101928.88;;;-0.04;100.00
81299;BME280;70766;53.170;18.160;2024-01-11T07:31:13;101930.14;;;-0.02;100.00
81299;BME280;70766;53.170;18.160;2024-01-11T07:33:42;101925.86;;;-0.01;100.00
81299;BME280;70766;53.170;18.160;2024-01-11T07:36:10;101917.39;;;0.01;100.00
81299;BME280;70766;53.170;18.160;2024-01-11T07:38:39;101929.90;;;0.03;100.00
81299;BME280;70766;53.170;18.160;2024-01-11T07:41:07;101934.09;;;0.03;100.00
81299;BME280;70766;53.170;18.160;2024-01-11T07:44:01;101941.11;;;0.06;100.00
81299;BME280;70766;53.170;18.160;2024-01-11T07:46:29;101949.72;;;0.08;100.00
81299;BME280;70766;53.170;18.160;2024-01-11T07:49:09;101962.36;;;0.11;100.00
81299;BME280;70766;53.170;18.160;2024-01-11T07:51:41;101961.94;;;0.11;100.00
81299;BME280;70766;53.170;18.160;2024-01-11T07:54:09;101953.55;;;0.15;100.00
81299;BME280;70766;53.170;18.160;2024-01-11T07:56:38;101953.77;;;0.14;100.00
81299;BME280;70766;53.170;18.160;2024-01-11T07:59:06;101954.48;;;0.18;100.00
81299;BME280;70766;53.170;18.160;2024-01-11T08:01:34;101961.39;;;0.20;100.00
81299;BME280;70766;53.170;18.160;2024-01-11T08:04:03;101954.89;;;0.24;100.00
81299;BME280;70766;53.170;18.160;2024-01-11T08:06:32;101948.71;;;0.28;100.00
81299;BME280;70766;53.170;18.160;2024-01-11T08:09:00;101945.26;;;0.32;100.00
81299;BME280;70766;53.170;18.160;2024-01-11T08:11:28;101938.34;;;0.34;100.00
81299;BME280;70766;53.170;18.160;2024-01-11T08:13:58;101946.35;;;0.37;100.00
81299;BME280;70766;53.170;18.160;2024-01-11T08:16:27;101956.66;;;0.38;100.00
81299;BME280;70766;53.170;18.160;2024-01-11T08:18:55;101954.80;;;0.39;100.00
81299;BME280;70766;53.170;18.160;2024-01-11T08:21:23;101957.80;;;0.41;100.00
81299;BME280;70766;53.170;18.160;2024-01-11T08:23:52;101957.95;;;0.41;100.00
81299;BME280;70766;53.170;18.160;2024-01-11T08:26:20;101950.65;;;0.45;100.00
81299;BME280;70766;53.170;18.160;2024-01-11T08:28:50;101943.86;;;0.46;100.00
81299;BME280;70766;53.170;18.160;2024-01-11T08:31:18;101937.17;;;0.49;100.00
81299;BME280;70766;53.170;18.160;2024-01-11T08:33:46;101937.33;;;0.54;100.00
81299;BME280;70766;53.170;18.160;2024-01-11T08:36:14;101943.89;;;0.55;100.00
81299;BME280;70766;53.170;18.160;2024-01-11T08:38:43;101954.36;;;0.56;100.00
81299;BME280;70766;53.170;18.160;2024-01-11T08:41:11;101953.53;;;0.58;100.00
81299;BME280;70766;53.170;18.160;2024-01-11T08:43:40;101951.95;;;0.60;100.00
81299;BME280;70766;53.170;18.160;2024-01-11T08:46:08;101958.98;;;0.64;100.00
81299;BME280;70766;53.170;18.160;2024-01-11T08:48:36;101960.54;;;0.66;100.00
81299;BME280;70766;53.170;18.160;2024-01-11T08:51:05;101966.30;;;0.69;100.00
81299;BME280;70766;53.170;18.160;2024-01-11T08:53:33;101972.03;;;0.72;100.00
81299;BME280;70766;53.170;18.160;2024-01-11T08:56:01;101967.39;;;0.74;100.00
81299;BME280;70766;53.170;18.160;2024-01-11T08:58:30;101968.66;;;0.76;100.00
81299;BME280;70766;53.170;18.160;2024-01-11T09:00:58;101970.38;;;0.76;100.00
81299;BME280;70766;53.170;18.160;2024-01-11T09:03:26;101980.15;;;0.74;100.00
81299;BME280;70766;53.170;18.160;2024-01-11T09:05:55;101985.80;;;0.78;100.00
81299;BME280;70766;53.170;18.160;2024-01-11T09:08:25;101986.56;;;0.79;100.00
81299;BME280;70766;53.170;18.160;2024-01-11T09:10:53;101995.64;;;0.80;100.00
81299;BME280;70766;53.170;18.160;2024-01-11T09:13:21;101995.84;;;0.83;100.00
81299;BME280;70766;53.170;18.160;2024-01-11T09:15:49;101994.67;;;0.81;100.00
81299;BME280;70766;53.170;18.160;2024-01-11T09:18:18;101993.86;;;0.80;100.00
81299;BME280;70766;53.170;18.160;2024-01-11T09:20:47;101996.51;;;0.82;100.00
81299;BME280;70766;53.170;18.160;2024-01-11T09:23:16;101984.61;;;0.91;100.00
81299;BME280;70766;53.170;18.160;2024-01-11T09:25:44;101977.12;;;0.96;100.00
81299;BME280;70766;53.170;18.160;2024-01-11T09:28:12;101973.00;;;0.97;100.00
81299;BME280;70766;53.170;18.160;2024-01-11T09:30:40;101974.65;;;1.00;100.00
81299;BME280;70766;53.170;18.160;2024-01-11T09:33:09;101978.10;;;0.97;100.00
81299;BME280;70766;53.170;18.160;2024-01-11T09:35:37;101976.83;;;1.01;100.00
81299;BME280;70766;53.170;18.160;2024-01-11T09:38:05;101974.24;;;1.03;100.00
81299;BME280;70766;53.170;18.160;2024-01-11T09:40:36;101972.27;;;1.07;100.00
81299;BME280;70766;53.170;18.160;2024-01-11T09:43:04;101970.80;;;1.10;100.00
81299;BME280;70766;53.170;18.160;2024-01-11T09:45:36;101973.51;;;1.13;100.00
81299;BME280;70766;53.170;18.160;2024-01-11T09:48:06;101979.30;;;1.15;100.00
81299;BME280;70766;53.170;18.160;2024-01-11T09:50:35;101977.71;;;1.21;100.00
81299;BME280;70766;53.170;18.160;2024-01-11T09:53:04;101969.67;;;1.24;100.00
81299;BME280;70766;53.170;18.160;2024-01-11T09:55:34;101969.34;;;1.24;100.00
81299;BME280;70766;53.170;18.160;2024-01-11T09:58:04;101971.11;;;1.30;100.00
81299;BME280;70766;53.170;18.160;2024-01-11T10:00:34;101970.50;;;1.33;100.00
81299;BME280;70766;53.170;18.160;2024-01-11T10:03:03;101965.92;;;1.32;100.00
81299;BME280;70766;53.170;18.160;2024-01-11T10:05:34;101960.33;;;1.28;100.00
81299;BME280;70766;53.170;18.160;2024-01-11T10:08:03;101956.81;;;1.24;100.00
81299;BME280;70766;53.170;18.160;2024-01-11T10:10:33;101964.13;;;1.31;100.00
81299;BME280;70766;53.170;18.160;2024-01-11T10:13:01;101967.96;;;1.33;100.00
81299;BME280;70766;53.170;18.160;2024-01-11T10:15:29;101963.23;;;1.33;100.00
81299;BME280;70766;53.170;18.160;2024-01-11T10:17:57;101962.56;;;1.33;100.00
81299;BME280;70766;53.170;18.160;2024-01-11T10:20:26;101965.89;;;1.35;100.00
81299;BME280;70766;53.170;18.160;2024-01-11T10:22:58;101958.33;;;1.38;100.00
81299;BME280;70766;53.170;18.160;2024-01-11T10:25:27;101961.28;;;1.33;100.00
81299;BME280;70766;53.170;18.160;2024-01-11T10:27:56;101954.30;;;1.32;100.00
81299;BME280;70766;53.170;18.160;2024-01-11T10:30:27;101956.29;;;1.34;100.00
81299;BME280;70766;53.170;18.160;2024-01-11T10:32:57;101954.33;;;1.34;100.00
81299;BME280;70766;53.170;18.160;2024-01-11T10:35:25;101957.88;;;1.36;100.00
81299;BME280;70766;53.170;18.160;2024-01-11T10:37:55;101948.07;;;1.35;100.00
81299;BME280;70766;53.170;18.160;2024-01-11T10:40:26;101946.39;;;1.38;100.00
81299;BME280;70766;53.170;18.160;2024-01-11T10:42:58;101944.98;;;1.42;100.00
81299;BME280;70766;53.170;18.160;2024-01-11T10:45:28;101949.05;;;1.30;100.00
81299;BME280;70766;53.170;18.160;2024-01-11T10:48:02;101955.01;;;1.38;100.00
81299;BME280;70766;53.170;18.160;2024-01-11T10:50:36;101952.70;;;1.36;100.00
81299;BME280;70766;53.170;18.160;2024-01-11T10:55:59;101956.96;;;1.40;100.00
81299;BME280;70766;53.170;18.160;2024-01-11T10:58:27;101958.11;;;1.45;100.00
81299;BME280;70766;53.170;18.160;2024-01-11T11:00:57;101947.63;;;1.40;100.00
81299;BME280;70766;53.170;18.160;2024-01-11T11:03:28;101940.23;;;1.46;100.00
81299;BME280;70766;53.170;18.160;2024-01-11T11:06:00;101935.48;;;1.45;100.00
81299;BME280;70766;53.170;18.160;2024-01-11T11:08:29;101927.16;;;1.54;100.00
81299;BME280;70766;53.170;18.160;2024-01-11T11:10:58;101919.72;;;1.56;100.00
81299;BME280;70766;53.170;18.160;2024-01-11T11:13:27;101911.09;;;1.56;100.00
81299;BME280;70766;53.170;18.160;2024-01-11T11:15:55;101911.29;;;1.59;100.00
81299;BME280;70766;53.170;18.160;2024-01-11T11:18:29;101911.34;;;1.61;100.00
81299;BME280;70766;53.170;18.160;2024-01-11T11:20:58;101911.79;;;1.60;100.00
81299;BME280;70766;53.170;18.160;2024-01-11T11:23:27;101908.16;;;1.61;100.00
81299;BME280;70766;53.170;18.160;2024-01-11T11:25:55;101905.55;;;1.64;100.00
81299;BME280;70766;53.170;18.160;2024-01-11T11:28:26;101904.50;;;1.62;100.00
81299;BME280;70766;53.170;18.160;2024-01-11T11:30:54;101898.83;;;1.61;100.00
81299;BME280;70766;53.170;18.160;2024-01-11T11:33:24;101895.17;;;1.64;100.00
81299;BME280;70766;53.170;18.160;2024-01-11T11:35:57;101901.93;;;1.59;100.00
81299;BME280;70766;53.170;18.160;2024-01-11T11:38:27;101900.50;;;1.63;100.00
81299;BME280;70766;53.170;18.160;2024-01-11T11:40:59;101906.05;;;1.61;100.00
81299;BME280;70766;53.170;18.160;2024-01-11T11:43:28;101907.75;;;1.67;100.00
81299;BME280;70766;53.170;18.160;2024-01-11T11:45:58;101901.79;;;1.61;100.00
81299;BME280;70766;53.170;18.160;2024-01-11T11:51:09;101905.33;;;1.72;100.00
81299;BME280;70766;53.170;18.160;2024-01-11T11:53:38;101898.77;;;1.73;100.00
81299;BME280;70766;53.170;18.160;2024-01-11T11:56:08;101891.72;;;1.78;100.00
81299;BME280;70766;53.170;18.160;2024-01-11T11:58:40;101888.52;;;1.78;100.00
81299;BME280;70766;53.170;18.160;2024-01-11T12:01:09;101882.51;;;1.79;100.00
81299;BME280;70766;53.170;18.160;2024-01-11T12:03:40;101880.52;;;1.73;100.00
81299;BME280;70766;53.170;18.160;2024-01-11T12:06:09;101873.86;;;1.75;100.00
81299;BME280;70766;53.170;18.160;2024-01-11T12:08:41;101873.06;;;1.80;100.00
81299;BME280;70766;53.170;18.160;2024-01-11T12:11:12;101876.00;;;1.86;100.00
81299;BME280;70766;53.170;18.160;2024-01-11T12:13:41;101872.63;;;1.90;100.00
81299;BME280;70766;53.170;18.160;2024-01-11T12:16:09;101866.16;;;1.87;100.00
81299;BME280;70766;53.170;18.160;2024-01-11T12:18:37;101857.38;;;1.91;100.00
81299;BME280;70766;53.170;18.160;2024-01-11T12:21:07;101854.10;;;1.99;100.00
81299;BME280;70766;53.170;18.160;2024-01-11T12:23:38;101853.96;;;1.99;100.00
81299;BME280;70766;53.170;18.160;2024-01-11T12:26:07;101848.66;;;2.01;100.00
81299;BME280;70766;53.170;18.160;2024-01-11T12:28:42;101848.48;;;2.10;100.00
81299;BME280;70766;53.170;18.160;2024-01-11T12:31:12;101856.08;;;2.08;100.00
81299;BME280;70766;53.170;18.160;2024-01-11T12:33:42;101868.14;;;2.06;100.00
81299;BME280;70766;53.170;18.160;2024-01-11T12:36:11;101871.02;;;2.09;100.00
81299;BME280;70766;53.170;18.160;2024-01-11T12:38:46;101872.20;;;2.06;100.00
81299;BME280;70766;53.170;18.160;2024-01-11T12:41:21;101881.57;;;2.04;100.00
81299;BME280;70766;53.170;18.160;2024-01-11T12:43:51;101884.51;;;1.99;100.00
81299;BME280;70766;53.170;18.160;2024-01-11T12:46:19;101891.05;;;1.80;100.00
81299;BME280;70766;53.170;18.160;2024-01-11T12:48:48;101891.36;;;1.72;100.00